createdAt,value
2022-10-10T00:00:49.213Z,90.75
2022-10-10T00:01:49.224Z,90.64
2022-10-10T00:02:49.531Z,90.84
2022-10-10T00:03:49.180Z,89.97
2022-10-10T00:04:49.232Z,90.58
2022-10-10T00:05:49.163Z,91.30
2022-10-10T00:06:49.146Z,90.48
2022-10-10T00:07:49.146Z,90.79
2022-10-10T00:08:49.124Z,90.89
2022-10-10T00:09:49.115Z,90.37
2022-10-10T00:10:49.127Z,90.28
2022-10-10T00:11:49.086Z,90.37
2022-10-10T00:12:49.456Z,90.69
2022-10-10T00:13:49.074Z,90.89
2022-10-10T00:14:49.066Z,90.17
2022-10-10T00:15:49.135Z,90.58
2022-10-10T00:16:49.048Z,90.89
2022-10-10T00:17:49.027Z,91.40
2022-10-10T00:18:49.030Z,91.40
2022-10-10T00:19:49.018Z,91.30
2022-10-10T00:20:49.006Z,90.99
2022-10-10T00:21:48.996Z,91.05
2022-10-10T00:22:49.311Z,90.84
2022-10-10T00:23:48.994Z,90.75
2022-10-10T00:24:48.937Z,90.64
2022-10-10T00:25:48.970Z,90.64
2022-10-10T00:26:48.940Z,90.28
2022-10-10T00:27:48.919Z,89.66
2022-10-10T00:28:48.901Z,90.17
2022-10-10T00:29:48.898Z,90.07
2022-10-10T00:30:48.910Z,90.48
2022-10-10T00:31:48.879Z,90.69
2022-10-10T00:32:49.196Z,90.17
2022-10-10T00:33:48.871Z,90.28
2022-10-10T00:34:48.863Z,90.89
2022-10-10T00:35:48.869Z,90.37
2022-10-10T00:36:48.818Z,90.48
2022-10-10T00:37:48.820Z,90.48
2022-10-10T00:38:48.802Z,90.07
2022-10-10T00:39:48.781Z,89.97
2022-10-10T00:40:48.789Z,89.66
2022-10-10T00:41:48.763Z,89.97
2022-10-10T00:42:49.088Z,90.69
2022-10-10T00:43:48.745Z,90.79
2022-10-10T00:44:48.740Z,90.99
2022-10-10T00:45:52.704Z,90.89
2022-10-10T00:46:48.712Z,90.48
2022-10-10T00:47:48.689Z,90.89
2022-10-10T00:48:48.693Z,91.30
2022-10-10T00:49:48.695Z,90.69
2022-10-10T00:50:48.681Z,90.37
2022-10-10T00:51:48.648Z,89.97
2022-10-10T00:52:48.868Z,90.48
2022-10-10T00:53:48.623Z,90.58
2022-10-10T00:54:51.681Z,90.48
2022-10-10T00:55:53.666Z,90.28
2022-10-10T00:56:57.273Z,90.48
2022-10-10T00:57:48.595Z,90.28
2022-10-10T00:58:48.574Z,90.17
2022-10-10T00:59:48.566Z,90.37
2022-10-10T01:00:48.620Z,90.17
2022-10-10T01:01:48.585Z,90.07
2022-10-10T01:02:48.922Z,89.76
2022-10-10T01:03:48.522Z,89.87
2022-10-10T01:04:48.505Z,89.87
2022-10-10T01:05:48.519Z,90.28
2022-10-10T01:06:48.494Z,90.48
2022-10-10T01:07:48.494Z,90.28
2022-10-10T01:08:48.468Z,90.07
2022-10-10T01:09:48.476Z,89.66
2022-10-10T01:10:48.446Z,90.37
2022-10-10T01:11:48.457Z,90.37
2022-10-10T01:12:48.783Z,90.69
2022-10-10T01:13:48.409Z,90.17
2022-10-10T01:14:48.408Z,90.17
2022-10-10T01:15:48.444Z,90.17
2022-10-10T01:16:48.391Z,89.97
2022-10-10T01:17:48.440Z,89.56
2022-10-10T01:18:48.395Z,89.36
2022-10-10T01:19:48.378Z,89.56
2022-10-10T01:20:48.348Z,89.56
2022-10-10T01:21:48.341Z,89.87
2022-10-10T01:22:48.647Z,90.17
2022-10-10T01:23:48.339Z,90.48
2022-10-10T01:24:48.320Z,90.69
2022-10-10T01:25:48.282Z,90.89
2022-10-10T01:26:48.291Z,90.99
2022-10-10T01:27:48.261Z,90.69
2022-10-10T01:28:48.263Z,90.69
2022-10-10T01:29:48.251Z,89.97
2022-10-10T01:30:48.262Z,89.87
2022-10-10T01:31:48.239Z,89.45
2022-10-10T01:32:48.535Z,89.87
2022-10-10T01:33:48.212Z,90.48
2022-10-10T01:34:48.212Z,90.99
2022-10-10T01:35:48.194Z,89.76
2022-10-10T01:36:48.223Z,89.87
2022-10-10T01:37:48.175Z,89.76
2022-10-10T01:38:48.174Z,89.36
2022-10-10T01:39:48.134Z,89.25
2022-10-10T01:40:48.131Z,90.17
2022-10-10T01:41:48.103Z,89.36
2022-10-10T01:42:48.401Z,89.45
2022-10-10T01:43:48.094Z,88.94
2022-10-10T01:44:48.085Z,90.07
2022-10-10T01:45:48.094Z,88.94
2022-10-10T01:46:48.063Z,88.94
2022-10-10T01:47:48.074Z,88.84
2022-10-10T01:48:48.046Z,88.84
2022-10-10T01:49:48.035Z,88.94
2022-10-10T01:50:48.026Z,88.43
2022-10-10T01:51:48.036Z,88.94
2022-10-10T01:52:48.269Z,88.94
2022-10-10T01:53:47.976Z,89.36
2022-10-10T01:54:47.965Z,89.04
2022-10-10T01:55:47.963Z,88.94
2022-10-10T01:56:47.953Z,89.56
2022-10-10T01:57:47.967Z,89.87
2022-10-10T01:58:47.936Z,90.17
2022-10-10T01:59:47.948Z,90.07
2022-10-10T02:00:47.963Z,89.76
2022-10-10T02:01:47.897Z,89.36
2022-10-10T02:02:48.143Z,89.45
2022-10-10T02:03:47.888Z,89.36
2022-10-10T02:04:47.877Z,89.25
2022-10-10T02:05:47.859Z,89.36
2022-10-10T02:06:47.839Z,89.66
2022-10-10T02:07:47.830Z,89.56
2022-10-10T02:08:47.820Z,89.15
2022-10-10T02:09:47.840Z,88.84
2022-10-10T02:10:47.800Z,89.15
2022-10-10T02:11:47.787Z,89.45
2022-10-10T02:12:48.168Z,89.76
2022-10-10T02:13:47.772Z,89.87
2022-10-10T02:14:47.831Z,89.36
2022-10-10T02:15:47.785Z,89.36
2022-10-10T02:16:47.740Z,89.45
2022-10-10T02:17:47.722Z,90.17
2022-10-10T02:18:47.720Z,90.48
2022-10-10T02:19:47.735Z,90.17
2022-10-10T02:20:47.711Z,89.87
2022-10-10T02:21:47.675Z,90.17
2022-10-10T02:22:47.929Z,90.07
2022-10-10T02:23:47.684Z,89.36
2022-10-10T02:24:47.693Z,89.36
2022-10-10T02:25:47.652Z,89.87
2022-10-10T02:26:47.629Z,89.66
2022-10-10T02:27:47.615Z,89.66
2022-10-10T02:28:47.646Z,90.07
2022-10-10T02:29:47.663Z,89.97
2022-10-10T02:30:47.585Z,89.66
2022-10-10T02:31:47.595Z,90.17
2022-10-10T02:32:47.688Z,90.28
2022-10-10T02:33:47.565Z,90.28
2022-10-10T02:34:47.534Z,90.58
2022-10-10T02:35:47.577Z,90.07
2022-10-10T02:36:47.532Z,89.97
2022-10-10T02:37:47.525Z,89.76
2022-10-10T02:38:47.497Z,89.56
2022-10-10T02:39:47.494Z,89.04
2022-10-10T02:40:47.477Z,88.78
2022-10-10T02:41:47.474Z,89.19
2022-10-10T02:42:47.671Z,89.70
2022-10-10T02:43:47.439Z,89.81
2022-10-10T02:44:47.453Z,89.81
2022-10-10T02:45:47.433Z,90.11
2022-10-10T02:46:47.408Z,89.70
2022-10-10T02:47:47.429Z,89.50
2022-10-10T02:48:47.406Z,90.11
2022-10-10T02:49:47.379Z,89.70
2022-10-10T02:50:47.378Z,90.42
2022-10-10T02:51:47.378Z,89.90
2022-10-10T02:52:47.550Z,89.70
2022-10-10T02:53:47.370Z,89.60
2022-10-10T02:54:47.370Z,89.19
2022-10-10T02:55:47.320Z,88.78
2022-10-10T02:56:47.317Z,89.39
2022-10-10T02:57:47.289Z,89.64
2022-10-10T02:58:47.289Z,90.01
2022-10-10T02:59:47.298Z,90.11
2022-10-10T03:00:47.300Z,90.32
2022-10-10T03:01:47.248Z,90.11
2022-10-10T03:02:47.251Z,90.32
2022-10-10T03:03:47.229Z,90.01
2022-10-10T03:04:47.231Z,89.50
2022-10-10T03:05:47.233Z,89.60
2022-10-10T03:06:47.202Z,89.84
2022-10-10T03:07:47.211Z,90.32
2022-10-10T03:08:47.190Z,90.42
2022-10-10T03:09:47.173Z,90.01
2022-10-10T03:10:47.175Z,90.22
2022-10-10T03:11:47.149Z,89.81
2022-10-10T03:12:47.236Z,89.70
2022-10-10T03:13:47.123Z,89.43
2022-10-10T03:14:47.133Z,88.82
2022-10-10T03:15:47.101Z,89.75
2022-10-10T03:16:47.152Z,89.54
2022-10-10T03:17:47.101Z,89.33
2022-10-10T03:18:47.069Z,90.16
2022-10-10T03:19:47.064Z,89.54
2022-10-10T03:20:47.055Z,89.70
2022-10-10T03:21:47.085Z,89.54
2022-10-10T03:22:47.024Z,90.11
2022-10-10T03:23:47.032Z,90.52
2022-10-10T03:24:47.016Z,90.32
2022-10-10T03:25:47.081Z,89.03
2022-10-10T03:26:47.041Z,89.13
2022-10-10T03:27:46.974Z,88.62
2022-10-10T03:28:47.016Z,89.03
2022-10-10T03:29:46.945Z,89.23
2022-10-10T03:30:46.948Z,89.43
2022-10-10T03:31:46.935Z,89.95
2022-10-10T03:32:46.947Z,89.03
2022-10-10T03:33:46.938Z,89.03
2022-10-10T03:34:46.907Z,88.72
2022-10-10T03:35:46.886Z,88.82
2022-10-10T03:36:46.889Z,89.54
2022-10-10T03:37:46.867Z,89.54
2022-10-10T03:38:46.889Z,89.54
2022-10-10T03:39:46.866Z,89.84
2022-10-10T03:40:46.848Z,89.54
2022-10-10T03:41:46.828Z,90.22
2022-10-10T03:42:46.821Z,89.50
2022-10-10T03:43:46.798Z,89.03
2022-10-10T03:44:46.808Z,88.62
2022-10-10T03:45:46.779Z,89.54
2022-10-10T03:46:46.778Z,90.05
2022-10-10T03:47:46.762Z,89.75
2022-10-10T03:48:46.762Z,89.64
2022-10-10T03:49:46.768Z,89.75
2022-10-10T03:50:46.733Z,89.84
2022-10-10T03:51:46.723Z,89.84
2022-10-10T03:52:46.721Z,90.16
2022-10-10T03:53:46.703Z,90.56
2022-10-10T03:54:46.710Z,90.36
2022-10-10T03:55:46.711Z,90.16
2022-10-10T03:56:46.703Z,89.64
2022-10-10T03:57:46.657Z,89.84
2022-10-10T03:58:46.667Z,88.92
2022-10-10T03:59:46.667Z,89.13
2022-10-10T04:00:46.621Z,90.16
2022-10-10T04:01:46.630Z,90.56
2022-10-10T04:02:46.603Z,90.05
2022-10-10T04:03:51.269Z,89.95
2022-10-10T04:04:47.633Z,89.84
2022-10-10T04:05:46.584Z,89.84
2022-10-10T04:06:46.557Z,90.36
2022-10-10T04:07:46.566Z,90.56
2022-10-10T04:08:46.542Z,90.26
2022-10-10T04:09:46.526Z,89.03
2022-10-10T04:10:46.527Z,88.72
2022-10-10T04:11:46.497Z,89.43
2022-10-10T04:12:46.494Z,89.33
2022-10-10T04:13:46.495Z,89.54
2022-10-10T04:14:46.489Z,88.92
2022-10-10T04:15:46.456Z,88.82
2022-10-10T04:16:46.530Z,89.43
2022-10-10T04:17:46.434Z,89.95
2022-10-10T04:18:46.425Z,89.84
2022-10-10T04:19:46.416Z,90.16
2022-10-10T04:20:46.496Z,90.46
2022-10-10T04:21:46.389Z,90.87
2022-10-10T04:22:46.411Z,89.95
2022-10-10T04:23:46.367Z,89.89
2022-10-10T04:24:46.378Z,89.84
2022-10-10T04:25:46.347Z,90.56
2022-10-10T04:26:46.357Z,90.36
2022-10-10T04:27:46.331Z,90.77
2022-10-10T04:28:46.414Z,90.67
2022-10-10T04:29:46.321Z,90.05
2022-10-10T04:30:46.310Z,89.37
2022-10-10T04:31:46.307Z,89.27
2022-10-10T04:32:46.295Z,89.69
2022-10-10T04:33:46.286Z,89.69
2022-10-10T04:34:46.279Z,89.99
2022-10-10T04:35:46.250Z,90.40
2022-10-10T04:36:46.230Z,89.89
2022-10-10T04:37:46.228Z,89.78
2022-10-10T04:38:46.243Z,89.99
2022-10-10T04:39:46.199Z,89.99
2022-10-10T04:40:46.183Z,89.69
2022-10-10T04:41:46.183Z,88.76
2022-10-10T04:42:46.170Z,88.66
2022-10-10T04:43:46.181Z,89.27
2022-10-10T04:44:46.216Z,89.78
2022-10-10T04:45:46.135Z,89.99
2022-10-10T04:46:46.123Z,89.89
2022-10-10T04:47:46.134Z,90.09
2022-10-10T04:48:46.107Z,90.40
2022-10-10T04:49:46.124Z,90.40
2022-10-10T04:50:46.085Z,89.69
2022-10-10T04:51:46.076Z,89.69
2022-10-10T04:52:46.064Z,89.58
2022-10-10T04:53:50.211Z,89.58
2022-10-10T04:54:46.046Z,90.09
2022-10-10T04:55:46.053Z,90.50
2022-10-10T04:56:46.025Z,90.50
2022-10-10T04:57:46.014Z,90.81
2022-10-10T04:58:46.015Z,90.09
2022-10-10T04:59:45.997Z,90.20
2022-10-10T05:00:45.995Z,90.61
2022-10-10T05:01:45.980Z,90.71
2022-10-10T05:02:45.976Z,90.20
2022-10-10T05:03:45.942Z,89.69
2022-10-10T05:04:45.927Z,89.78
2022-10-10T05:05:45.966Z,89.99
2022-10-10T05:06:45.909Z,90.61
2022-10-10T05:07:45.906Z,90.30
2022-10-10T05:08:45.890Z,90.50
2022-10-10T05:09:45.882Z,90.81
2022-10-10T05:10:45.879Z,90.81
2022-10-10T05:11:45.903Z,90.91
2022-10-10T05:12:45.845Z,90.91
2022-10-10T05:13:45.838Z,90.61
2022-10-10T05:14:48.091Z,90.40
2022-10-10T05:15:45.820Z,90.50
2022-10-10T05:16:45.844Z,90.61
2022-10-10T05:17:45.805Z,90.81
2022-10-10T05:18:45.790Z,90.81
2022-10-10T05:19:45.772Z,91.02
2022-10-10T05:20:45.758Z,91.63
2022-10-10T05:21:45.780Z,91.38
2022-10-10T05:22:45.748Z,90.97
2022-10-10T05:23:45.728Z,89.99
2022-10-10T05:24:45.720Z,90.20
2022-10-10T05:25:45.732Z,90.30
2022-10-10T05:26:45.689Z,90.30
2022-10-10T05:27:45.716Z,90.81
2022-10-10T05:28:45.712Z,89.99
2022-10-10T05:29:45.662Z,90.09
2022-10-10T05:30:45.661Z,90.61
2022-10-10T05:31:45.645Z,90.71
2022-10-10T05:32:45.632Z,90.81
2022-10-10T05:33:45.651Z,90.61
2022-10-10T05:34:45.602Z,90.71
2022-10-10T05:35:45.985Z,90.61
2022-10-10T05:36:45.582Z,89.58
2022-10-10T05:37:45.581Z,90.09
2022-10-10T05:38:45.583Z,90.30
2022-10-10T05:39:45.575Z,89.69
2022-10-10T05:40:45.548Z,90.09
2022-10-10T05:41:45.555Z,90.03
2022-10-10T05:42:45.554Z,90.14
2022-10-10T05:43:45.515Z,90.55
2022-10-10T05:44:45.503Z,91.06
2022-10-10T05:45:45.534Z,91.06
2022-10-10T05:46:45.501Z,91.27
2022-10-10T05:47:45.488Z,91.27
2022-10-10T05:48:45.458Z,90.85
2022-10-10T05:49:45.454Z,90.75
2022-10-10T05:50:45.475Z,90.55
2022-10-10T05:51:45.426Z,90.75
2022-10-10T05:52:45.428Z,91.12
2022-10-10T05:53:45.434Z,91.27
2022-10-10T05:54:45.398Z,90.95
2022-10-10T05:55:45.401Z,90.95
2022-10-10T05:56:45.427Z,91.42
2022-10-10T05:57:45.368Z,91.33
2022-10-10T05:58:45.389Z,91.22
2022-10-10T05:59:45.358Z,90.61
2022-10-10T06:00:45.363Z,90.34
2022-10-10T06:01:45.319Z,90.34
2022-10-10T06:02:45.364Z,90.34
2022-10-10T06:03:45.329Z,90.81
2022-10-10T06:04:45.289Z,90.44
2022-10-10T06:05:45.369Z,90.24
2022-10-10T06:06:45.275Z,90.34
2022-10-10T06:08:04.735Z,90.55
2022-10-10T06:08:46.415Z,90.44
2022-10-10T06:09:45.243Z,90.55
2022-10-10T06:10:45.229Z,90.95
2022-10-10T06:11:45.210Z,91.06
2022-10-10T06:12:45.219Z,91.27
2022-10-10T06:13:45.221Z,91.06
2022-10-10T06:14:45.210Z,91.37
2022-10-10T06:15:45.184Z,91.37
2022-10-10T06:16:45.161Z,91.42
2022-10-10T06:17:45.158Z,92.14
2022-10-10T06:18:45.142Z,91.74
2022-10-10T06:19:45.180Z,90.91
2022-10-10T06:20:45.133Z,90.34
2022-10-10T06:21:45.116Z,90.40
2022-10-10T06:22:45.103Z,90.61
2022-10-10T06:23:45.083Z,91.02
2022-10-10T06:24:47.478Z,91.02
2022-10-10T06:25:46.053Z,91.22
2022-10-10T06:26:45.062Z,91.63
2022-10-10T06:27:45.058Z,91.84
2022-10-10T06:28:45.071Z,91.22
2022-10-10T06:29:45.043Z,91.33
2022-10-10T06:30:45.059Z,91.53
2022-10-10T06:31:44.985Z,91.42
2022-10-10T06:32:44.989Z,91.74
2022-10-10T06:33:44.964Z,91.94
2022-10-10T06:34:44.975Z,91.84
2022-10-10T06:35:44.972Z,91.74
2022-10-10T06:36:44.953Z,91.33
2022-10-10T06:37:44.934Z,90.20
2022-10-10T06:38:44.925Z,90.71
2022-10-10T06:39:44.906Z,91.12
2022-10-10T06:40:44.917Z,90.71
2022-10-10T06:41:44.888Z,90.81
2022-10-10T06:42:44.889Z,91.02
2022-10-10T06:43:44.868Z,91.02
2022-10-10T06:44:44.866Z,90.81
2022-10-10T06:45:44.854Z,90.50
2022-10-10T06:46:44.858Z,90.50
2022-10-10T06:47:44.858Z,90.50
2022-10-10T06:48:44.820Z,90.61
2022-10-10T06:49:44.846Z,90.91
2022-10-10T06:50:44.813Z,90.61
2022-10-10T06:51:44.795Z,91.22
2022-10-10T06:52:44.770Z,90.81
2022-10-10T06:53:44.767Z,90.91
2022-10-10T06:54:44.749Z,90.50
2022-10-10T06:55:44.750Z,90.50
2022-10-10T06:56:44.742Z,90.91
2022-10-10T06:57:44.742Z,90.81
2022-10-10T06:58:44.749Z,90.50
2022-10-10T06:59:44.698Z,90.30
2022-10-10T07:00:44.701Z,91.12
2022-10-10T07:01:44.748Z,91.42
2022-10-10T07:02:44.711Z,91.12
2022-10-10T07:03:44.651Z,91.33
2022-10-10T07:04:44.662Z,91.33
2022-10-10T07:05:44.630Z,91.42
2022-10-10T07:06:44.641Z,91.33
2022-10-10T07:07:44.615Z,91.02
2022-10-10T07:08:44.631Z,90.91
2022-10-10T07:09:44.605Z,91.12
2022-10-10T07:10:44.591Z,90.61
2022-10-10T07:11:44.599Z,90.61
2022-10-10T07:12:45.239Z,90.61
2022-10-10T07:13:44.606Z,90.71
2022-10-10T07:14:44.539Z,90.81
2022-10-10T07:15:44.533Z,90.81
2022-10-10T07:16:44.556Z,91.02
2022-10-10T07:17:44.516Z,90.91
2022-10-10T07:18:44.513Z,90.50
2022-10-10T07:19:44.522Z,90.46
2022-10-10T07:20:44.488Z,90.91
2022-10-10T07:21:44.476Z,90.56
2022-10-10T07:22:44.495Z,91.38
2022-10-10T07:23:44.455Z,90.87
2022-10-10T07:24:44.436Z,90.77
2022-10-10T07:25:44.466Z,90.97
2022-10-10T07:26:44.425Z,91.28
2022-10-10T07:27:44.436Z,91.69
2022-10-10T07:28:44.428Z,91.18
2022-10-10T07:29:44.376Z,91.38
2022-10-10T07:30:44.414Z,91.18
2022-10-10T07:31:44.379Z,91.28
2022-10-10T07:32:44.377Z,90.97
2022-10-10T07:33:49.649Z,90.97
2022-10-10T07:34:45.317Z,90.87
2022-10-10T07:35:44.328Z,90.77
2022-10-10T07:36:44.348Z,90.56
2022-10-10T07:37:44.309Z,90.97
2022-10-10T07:38:44.290Z,91.28
2022-10-10T07:39:44.274Z,91.14
2022-10-10T07:40:44.280Z,91.44
2022-10-10T07:41:44.251Z,91.75
2022-10-10T07:42:44.274Z,91.03
2022-10-10T07:43:44.250Z,90.52
2022-10-10T07:44:44.227Z,89.90
2022-10-10T07:45:44.207Z,89.81
2022-10-10T07:46:44.200Z,90.42
2022-10-10T07:47:44.221Z,90.93
2022-10-10T07:48:44.184Z,90.62
2022-10-10T07:49:44.182Z,90.83
2022-10-10T07:50:44.150Z,90.42
2022-10-10T07:51:44.170Z,90.93
2022-10-10T07:52:44.152Z,90.11
2022-10-10T07:53:44.162Z,90.52
2022-10-10T07:54:44.122Z,90.17
2022-10-10T07:55:44.145Z,90.37
2022-10-10T07:56:44.103Z,90.69
2022-10-10T07:57:44.122Z,90.58
2022-10-10T07:58:44.074Z,90.48
2022-10-10T07:59:44.072Z,90.17
2022-10-10T08:00:44.078Z,90.17
2022-10-10T08:01:44.089Z,90.37
2022-10-10T08:02:44.065Z,90.37
2022-10-10T08:03:44.091Z,90.48
2022-10-10T08:04:44.004Z,90.58
2022-10-10T08:05:44.009Z,90.99
2022-10-10T08:06:43.991Z,90.89
2022-10-10T08:07:44.026Z,89.92
2022-10-10T08:08:50.951Z,90.03
2022-10-10T08:09:44.954Z,90.34
2022-10-10T08:10:43.975Z,89.72
2022-10-10T08:11:43.935Z,89.72
2022-10-10T08:12:43.946Z,89.11
2022-10-10T08:13:43.905Z,89.31
2022-10-10T08:14:43.908Z,89.00
2022-10-10T08:15:43.886Z,89.00
2022-10-10T08:16:43.917Z,88.80
2022-10-10T08:17:43.938Z,89.42
2022-10-10T08:18:43.888Z,89.42
2022-10-10T08:19:43.897Z,88.76
2022-10-10T08:20:43.837Z,88.14
2022-10-10T08:21:43.838Z,88.65
2022-10-10T08:22:43.849Z,88.56
2022-10-10T08:23:43.870Z,87.73
2022-10-10T08:24:43.800Z,88.04
2022-10-10T08:25:43.875Z,88.45
2022-10-10T08:26:43.825Z,88.24
2022-10-10T08:27:43.765Z,88.65
2022-10-10T08:28:43.891Z,88.10
2022-10-10T08:29:43.739Z,88.00
2022-10-10T08:30:43.741Z,88.20
2022-10-10T08:31:43.803Z,87.49
2022-10-10T08:32:43.711Z,87.38
2022-10-10T08:33:43.729Z,87.08
2022-10-10T08:34:43.691Z,87.29
2022-10-10T08:35:43.682Z,87.14
2022-10-10T08:36:43.678Z,87.24
2022-10-10T08:37:43.694Z,86.94
2022-10-10T08:38:43.648Z,85.81
2022-10-10T08:39:43.682Z,85.71
2022-10-10T08:40:43.652Z,86.32
2022-10-10T08:41:43.622Z,86.43
2022-10-10T08:42:50.297Z,86.43
2022-10-10T08:43:44.622Z,86.22
2022-10-10T08:44:43.582Z,85.40
2022-10-10T08:45:43.636Z,86.59
2022-10-10T08:46:43.560Z,86.59
2022-10-10T08:47:43.625Z,85.77
2022-10-10T08:48:43.541Z,86.18
2022-10-10T08:49:43.541Z,85.97
2022-10-10T08:50:43.513Z,85.77
2022-10-10T08:51:43.515Z,86.79
2022-10-10T08:52:43.523Z,86.29
2022-10-10T08:53:43.503Z,85.67
2022-10-10T08:54:43.494Z,85.47
2022-10-10T08:55:43.500Z,85.32
2022-10-10T08:56:43.513Z,85.42
2022-10-10T08:57:43.474Z,85.73
2022-10-10T08:58:43.474Z,86.14
2022-10-10T08:59:43.611Z,85.63
2022-10-10T09:00:43.446Z,85.63
2022-10-10T09:02:18.127Z,84.91
2022-10-10T09:03:03.137Z,86.41
2022-10-10T09:03:44.388Z,86.51
2022-10-10T09:04:43.491Z,85.59
2022-10-10T09:05:44.296Z,85.49
2022-10-10T09:06:43.636Z,84.88
2022-10-10T09:07:43.376Z,85.49
2022-10-10T09:08:43.327Z,84.36
2022-10-10T09:09:43.334Z,85.14
2022-10-10T09:10:43.488Z,85.65
2022-10-10T09:11:43.349Z,85.96
2022-10-10T09:12:43.279Z,85.14
2022-10-10T09:13:43.357Z,83.92
2022-10-10T09:14:43.288Z,83.61
2022-10-10T09:15:43.249Z,85.24
2022-10-10T09:16:43.340Z,85.55
2022-10-10T09:17:43.240Z,84.42
2022-10-10T09:18:43.239Z,83.81
2022-10-10T09:19:43.209Z,84.33
2022-10-10T09:20:43.196Z,84.49
2022-10-10T09:21:43.434Z,83.67
2022-10-10T09:22:43.200Z,83.67
2022-10-10T09:23:43.172Z,83.78
2022-10-10T09:24:43.704Z,83.26
2022-10-10T09:25:43.141Z,84.69
2022-10-10T09:26:43.201Z,84.59
2022-10-10T09:27:43.122Z,83.87
2022-10-10T09:28:43.189Z,82.75
2022-10-10T09:29:43.104Z,83.16
2022-10-10T09:30:43.095Z,83.57
2022-10-10T09:31:43.155Z,82.96
2022-10-10T09:32:43.051Z,82.55
2022-10-10T09:33:43.090Z,83.23
2022-10-10T09:34:43.051Z,82.82
2022-10-10T09:35:43.042Z,82.82
2022-10-10T09:36:43.035Z,82.51
2022-10-10T09:37:47.328Z,83.43
2022-10-10T09:38:43.008Z,83.94
2022-10-10T09:39:42.994Z,84.34
2022-10-10T09:40:42.992Z,85.06
2022-10-10T09:41:43.145Z,83.84
2022-10-10T09:42:42.946Z,83.02
2022-10-10T09:43:42.941Z,82.51
2022-10-10T09:44:42.965Z,83.23
2022-10-10T09:45:42.944Z,82.31
2022-10-10T09:46:42.905Z,83.02
2022-10-10T09:47:42.927Z,83.12
2022-10-10T09:48:42.884Z,83.39
2022-10-10T09:49:42.885Z,83.29
2022-10-10T09:50:43.910Z,84.00
2022-10-10T09:51:42.857Z,84.00
2022-10-10T09:52:42.856Z,83.59
2022-10-10T09:53:42.826Z,83.80
2022-10-10T09:54:42.881Z,83.59
2022-10-10T09:55:42.876Z,84.92
2022-10-10T09:56:42.807Z,83.59
2022-10-10T09:57:42.808Z,82.88
2022-10-10T09:58:42.807Z,82.47
2022-10-10T09:59:42.808Z,83.09
2022-10-10T10:00:42.799Z,84.20
2022-10-10T10:01:42.759Z,84.82
2022-10-10T10:02:42.741Z,84.00
2022-10-10T10:03:42.718Z,83.04
2022-10-10T10:04:42.760Z,82.23
2022-10-10T10:05:42.739Z,83.25
2022-10-10T10:06:42.721Z,82.94
2022-10-10T10:07:42.693Z,82.64
2022-10-10T10:08:42.834Z,83.25
2022-10-10T10:09:42.734Z,81.01
2022-10-10T10:10:42.650Z,80.70
2022-10-10T10:11:42.671Z,81.52
2022-10-10T10:12:42.633Z,81.31
2022-10-10T10:13:42.616Z,80.70
2022-10-10T10:14:42.604Z,81.82
2022-10-10T10:15:42.592Z,82.43
2022-10-10T10:16:42.632Z,81.72
2022-10-10T10:17:42.612Z,81.62
2022-10-10T10:18:42.584Z,81.72
2022-10-10T10:19:42.560Z,82.33
2022-10-10T10:20:42.544Z,83.15
2022-10-10T10:21:42.583Z,83.09
2022-10-10T10:22:42.552Z,82.78
2022-10-10T10:23:42.505Z,83.90
2022-10-10T10:24:42.533Z,83.29
2022-10-10T10:25:42.485Z,82.98
2022-10-10T10:26:42.493Z,83.09
2022-10-10T10:27:42.465Z,83.59
2022-10-10T10:28:42.540Z,83.29
2022-10-10T10:29:42.462Z,84.20
2022-10-10T10:30:42.446Z,83.18
2022-10-10T10:31:43.929Z,83.70
2022-10-10T10:32:42.563Z,83.59
2022-10-10T10:33:42.436Z,84.11
2022-10-10T10:34:42.386Z,83.18
2022-10-10T10:35:42.407Z,83.49
2022-10-10T10:36:42.374Z,83.18
2022-10-10T10:37:42.355Z,82.68
2022-10-10T10:38:42.366Z,82.07
2022-10-10T10:39:42.376Z,83.18
2022-10-10T10:40:42.326Z,84.20
2022-10-10T10:41:42.317Z,83.18
2022-10-10T10:42:42.338Z,81.96
2022-10-10T10:43:42.315Z,81.96
2022-10-10T10:44:42.316Z,80.13
2022-10-10T10:45:42.328Z,80.13
2022-10-10T10:46:42.277Z,80.84
2022-10-10T10:47:42.261Z,81.35
2022-10-10T10:48:42.250Z,80.94
2022-10-10T10:49:42.230Z,80.54
2022-10-10T10:50:42.261Z,79.82
2022-10-10T10:51:42.199Z,80.33
2022-10-10T10:52:42.190Z,81.82
2022-10-10T10:53:42.189Z,82.84
2022-10-10T10:54:42.383Z,84.27
2022-10-10T10:55:42.165Z,81.72
2022-10-10T10:56:42.177Z,81.93
2022-10-10T10:58:10.301Z,80.80
2022-10-10T10:59:22.551Z,82.64
2022-10-10T11:00:22.207Z,81.82
2022-10-10T11:01:23.545Z,81.93
2022-10-10T11:01:55.897Z,83.21
2022-10-10T11:02:57.409Z,81.38
2022-10-10T11:05:16.215Z,79.64
2022-10-10T11:05:17.996Z,81.07
2022-10-10T11:05:43.221Z,79.95
2022-10-10T11:06:53.918Z,79.24
2022-10-10T11:07:43.144Z,81.17
2022-10-10T11:08:42.023Z,82.46
2022-10-10T11:09:50.474Z,82.50
2022-10-10T11:10:43.015Z,80.83
2022-10-10T11:11:41.997Z,83.78
2022-10-10T11:12:42.092Z,84.29
2022-10-10T11:13:41.997Z,81.44
2022-10-10T11:14:41.955Z,81.74
2022-10-10T11:16:48.361Z,82.15
2022-10-10T11:17:42.944Z,81.13
2022-10-10T11:18:41.916Z,82.46
2022-10-10T11:19:41.990Z,80.02
2022-10-10T11:20:41.893Z,79.71
2022-10-10T11:21:41.901Z,80.22
2022-10-10T11:22:46.254Z,81.74
2022-10-10T11:23:41.866Z,81.44
2022-10-10T11:24:41.845Z,79.47
2022-10-10T11:25:41.839Z,79.27
2022-10-10T11:26:41.859Z,79.47
2022-10-10T11:27:41.816Z,82.01
2022-10-10T11:28:45.011Z,81.71
2022-10-10T11:29:42.799Z,83.23
2022-10-10T11:30:41.795Z,81.71
2022-10-10T11:31:41.822Z,83.03
2022-10-10T11:32:41.773Z,80.59
2022-10-10T11:33:41.771Z,81.40
2022-10-10T11:34:41.757Z,82.32
2022-10-10T11:35:41.760Z,82.62
2022-10-10T11:36:41.752Z,82.42
2022-10-10T11:37:41.767Z,80.18
2022-10-10T11:38:41.699Z,81.51
2022-10-10T11:39:41.750Z,82.93
2022-10-10T11:40:41.670Z,80.99
2022-10-10T11:41:41.702Z,80.99
2022-10-10T11:42:41.661Z,80.90
2022-10-10T11:43:41.673Z,80.49
2022-10-10T11:44:41.671Z,81.10
2022-10-10T11:45:41.631Z,80.15
2022-10-10T11:46:41.655Z,79.74
2022-10-10T11:47:41.600Z,78.72
2022-10-10T11:48:41.603Z,77.91
2022-10-10T11:49:41.583Z,78.01
2022-10-10T11:50:41.578Z,80.00
2022-10-10T11:51:41.555Z,77.97
2022-10-10T11:52:41.607Z,77.16
2022-10-10T11:53:41.550Z,77.97
2022-10-10T11:54:41.523Z,79.80
2022-10-10T11:55:41.518Z,80.21
2022-10-10T11:56:41.511Z,78.89
2022-10-10T11:57:41.568Z,78.28
2022-10-10T11:58:41.475Z,77.26
2022-10-10T11:59:41.501Z,78.99
2022-10-10T12:00:41.495Z,79.39
2022-10-10T12:01:41.447Z,79.25
2022-10-10T12:02:41.466Z,78.75
2022-10-10T12:03:41.425Z,80.68
2022-10-10T12:04:41.434Z,79.56
2022-10-10T12:05:41.435Z,77.83
2022-10-10T12:06:41.399Z,77.53
2022-10-10T12:07:41.409Z,77.43
2022-10-10T12:08:41.388Z,78.85
2022-10-10T12:09:41.368Z,79.16
2022-10-10T12:10:41.349Z,79.02
2022-10-10T12:11:41.333Z,77.39
2022-10-10T12:12:41.362Z,77.49
2022-10-10T12:13:41.328Z,77.39
2022-10-10T12:14:41.340Z,77.97
2022-10-10T12:15:43.499Z,80.40
2022-10-10T12:16:41.301Z,79.28
2022-10-10T12:17:41.276Z,79.08
2022-10-10T12:18:41.291Z,80.19
2022-10-10T12:19:41.248Z,79.79
2022-10-10T12:20:41.242Z,78.88
2022-10-10T12:21:41.252Z,80.19
2022-10-10T12:22:41.239Z,79.42
2022-10-10T12:23:41.248Z,79.79
2022-10-10T12:24:43.140Z,79.90
2022-10-10T12:25:41.224Z,79.28
2022-10-10T12:26:41.174Z,80.40
2022-10-10T12:27:41.237Z,79.69
2022-10-10T12:28:41.256Z,80.60
2022-10-10T12:29:41.164Z,81.31
2022-10-10T12:30:41.122Z,79.59
2022-10-10T12:31:41.166Z,80.30
2022-10-10T12:32:41.162Z,79.38
2022-10-10T12:33:41.137Z,78.91
2022-10-10T12:34:41.092Z,79.49
2022-10-10T12:35:41.085Z,80.71
2022-10-10T12:36:41.090Z,80.60
2022-10-10T12:37:41.054Z,78.98
2022-10-10T12:38:41.066Z,77.86
2022-10-10T12:39:41.062Z,78.17
2022-10-10T12:40:41.021Z,80.36
2022-10-10T12:41:46.154Z,76.71
2022-10-10T12:42:42.056Z,77.42
2022-10-10T12:43:41.023Z,77.62
2022-10-10T12:44:41.036Z,78.53
2022-10-10T12:45:41.029Z,79.45
2022-10-10T12:46:40.965Z,79.65
2022-10-10T12:48:04.044Z,80.46
2022-10-10T12:48:41.945Z,79.04
2022-10-10T12:49:40.955Z,77.52
2022-10-10T12:50:40.919Z,79.18
2022-10-10T12:51:40.938Z,80.66
2022-10-10T12:52:41.015Z,80.91
2022-10-10T12:53:40.926Z,80.60